Time;durP1;ratioP1;P1;durP2;ratioP2;P2;SDS_P1;SDS_P2;PMS_P1;PMS_P2;Temp;Humidity;BMP_temperature;BMP_pressure;BME280_temperature;BME280_humidity;BME280_pressure;Samples;Min_cycle;Max_cycle;Signal;HPM_P1;HPM_P2
2023/04/27 00:01:42;;;;;;;0.40;0.00;;;;;;;7.83;100.00;98763.84;104824;1254;73622;-50
2023/04/27 00:04:09;;;;;;;0.00;0.00;;;;;;;7.82;100.00;98769.11;104811;1256;67910;-51
2023/04/27 00:06:37;;;;;;;0.00;0.00;;;;;;;7.79;100.00;98771.23;106034;1260;74764;-51
2023/04/27 00:09:04;;;;;;;0.10;0.00;;;;;;;7.76;100.00;98774.42;105402;1256;62213;-49
2023/04/27 00:11:31;;;;;;;0.40;0.10;;;;;;;7.74;100.00;98780.64;105395;1260;60954;-51
2023/04/27 00:13:58;;;;;;;2.10;0.00;;;;;;;7.73;100.00;98789.59;105408;1259;75047;-49
2023/04/27 00:16:25;;;;;;;0.00;0.00;;;;;;;7.73;100.00;98792.45;105355;1259;68720;-49
2023/04/27 00:18:52;;;;;;;0.00;0.00;;;;;;;7.72;100.00;98798.73;105531;1255;73289;-49
2023/04/27 00:21:19;;;;;;;0.10;0.00;;;;;;;7.71;100.00;98800.04;105975;1259;63225;-49
2023/04/27 00:23:46;;;;;;;2.50;0.40;;;;;;;7.70;100.00;98800.83;105004;1260;60647;-50
2023/04/27 00:26:13;;;;;;;0.10;0.00;;;;;;;7.65;100.00;98803.75;105036;1259;73182;-50
2023/04/27 00:28:42;;;;;;;0.00;0.00;;;;;;;7.61;100.00;98807.70;105054;1260;70002;-49
2023/04/27 00:31:08;;;;;;;2.00;0.00;;;;;;;7.60;100.00;98810.77;105119;1257;72916;-48
2023/04/27 00:33:35;;;;;;;0.00;0.00;;;;;;;7.59;100.00;98806.53;105346;1261;61756;-50
2023/04/27 00:36:02;;;;;;;0.00;0.00;;;;;;;7.59;100.00;98805.66;105351;1254;60539;-51
2023/04/27 00:38:29;;;;;;;0.30;0.00;;;;;;;7.57;100.00;98803.23;105427;1259;75477;-50
2023/04/27 00:41:01;;;;;;;0.00;0.00;;;;;;;7.53;100.00;98802.02;105770;1254;68732;-49
2023/04/27 00:43:28;;;;;;;4.10;0.10;;;;;;;7.50;100.00;98800.59;105655;1259;72684;-51
2023/04/27 00:45:55;;;;;;;0.00;0.00;;;;;;;7.45;100.00;98807.80;105376;1254;62521;-51
2023/04/27 00:48:22;;;;;;;0.00;0.00;;;;;;;7.41;100.00;98805.32;105232;1259;62406;-50
2023/04/27 00:50:49;;;;;;;0.60;0.00;;;;;;;7.38;100.00;98813.89;105260;1262;75249;-49
2023/04/27 00:53:17;;;;;;;0.40;0.10;;;;;;;7.36;100.00;98818.98;105359;1263;66391;-49
2023/04/27 00:55:43;;;;;;;1.00;0.00;;;;;;;7.34;100.00;98820.85;105183;1265;70818;-49
2023/04/27 00:58:10;;;;;;;0.10;0.00;;;;;;;7.32;100.00;98819.02;105415;1255;61547;-50
2023/04/27 01:00:38;;;;;;;0.10;0.00;;;;;;;7.29;100.00;98821.31;107426;1254;60597;-50
2023/04/27 01:03:06;;;;;;;0.00;0.00;;;;;;;7.24;100.00;98827.63;106112;1261;75113;-49
2023/04/27 01:05:33;;;;;;;0.00;0.00;;;;;;;7.18;100.00;98830.91;105589;1259;69953;-49
2023/04/27 01:08:00;;;;;;;0.20;0.10;;;;;;;7.16;100.00;98828.86;105526;1261;72247;-50
2023/04/27 01:10:27;;;;;;;0.10;0.10;;;;;;;7.16;100.00;98826.75;105471;1259;63144;-48
2023/04/27 01:12:54;;;;;;;1.20;0.10;;;;;;;7.16;100.00;98822.11;105536;1266;60941;-50
2023/04/27 01:15:21;;;;;;;0.30;0.10;;;;;;;7.15;100.00;98817.49;105507;1260;73155;-48
2023/04/27 01:17:48;;;;;;;0.10;0.00;;;;;;;7.14;100.00;98815.98;105398;1254;67745;-50
2023/04/27 01:20:14;;;;;;;1.90;0.10;;;;;;;7.16;100.00;98816.23;104962;1257;75274;-49
2023/04/27 01:22:42;;;;;;;0.30;0.00;;;;;;;7.17;100.00;98815.11;104938;1253;64107;-50
2023/04/27 01:25:09;;;;;;;0.40;0.10;;;;;;;7.15;100.00;98817.14;104906;1262;60716;-49
2023/04/27 01:27:35;;;;;;;0.00;0.00;;;;;;;7.14;100.00;98818.45;105258;1260;74106;-50
2023/04/27 01:30:03;;;;;;;0.30;0.10;;;;;;;7.11;100.00;98821.45;105275;1262;66223;-49
2023/04/27 01:32:29;;;;;;;0.10;0.00;;;;;;;7.08;100.00;98818.59;105460;1259;75050;-50
2023/04/27 01:34:56;;;;;;;0.80;0.10;;;;;;;7.07;100.00;98829.30;105345;1260;64453;-51
2023/04/27 01:37:25;;;;;;;0.00;0.00;;;;;;;7.10;100.00;98834.17;108840;1260;60363;-51
2023/04/27 01:39:51;;;;;;;0.10;0.00;;;;;;;7.13;100.00;98839.91;108934;1254;73471;-49
2023/04/27 01:42:18;;;;;;;0.10;0.10;;;;;;;7.15;100.00;98842.85;107832;1260;68671;-48
2023/04/27 01:44:45;;;;;;;0.10;0.10;;;;;;;7.16;100.00;98841.38;104784;1262;72994;-49
2023/04/27 01:47:14;;;;;;;0.20;0.10;;;;;;;7.15;100.00;98836.58;104994;1254;62572;-49
2023/04/27 01:49:40;;;;;;;1.40;0.00;;;;;;;7.13;100.00;98834.55;108905;1254;59032;-51
2023/04/27 01:52:07;;;;;;;0.10;0.10;;;;;;;7.11;100.00;98832.73;107032;1260;74180;-50
2023/04/27 01:54:34;;;;;;;2.90;0.10;;;;;;;7.09;100.00;98834.38;105125;1259;66253;-46
2023/04/27 01:57:01;;;;;;;0.30;0.10;;;;;;;7.11;100.00;98833.06;105177;1263;74806;-51
2023/04/27 01:59:28;;;;;;;0.10;0.10;;;;;;;7.12;100.00;98836.92;104920;1255;63809;-50
2023/04/27 02:01:55;;;;;;;0.50;0.10;;;;;;;7.13;100.00;98834.77;104808;1269;60435;-51
2023/04/27 02:04:22;;;;;;;1.30;0.10;;;;;;;7.14;100.00;98835.79;108782;1254;74214;-49
2023/04/27 02:06:50;;;;;;;0.20;0.10;;;;;;;7.15;100.00;98836.27;108936;1254;69247;-50
2023/04/27 02:09:17;;;;;;;0.20;0.10;;;;;;;7.14;100.00;98840.05;108843;1254;72972;-50
2023/04/27 02:11:44;;;;;;;0.10;0.10;;;;;;;7.12;100.00;98837.50;108898;1260;63775;-48
2023/04/27 02:14:10;;;;;;;0.10;0.10;;;;;;;7.07;100.00;98836.49;108841;1253;62693;-49
2023/04/27 02:16:37;;;;;;;0.30;0.20;;;;;;;7.03;100.00;98834.90;108864;1254;74113;-50
2023/04/27 02:19:04;;;;;;;1.00;0.30;;;;;;;6.99;100.00;98832.02;108864;1254;70166;-49
2023/04/27 02:21:31;;;;;;;0.20;0.20;;;;;;;6.98;100.00;98831.23;105071;1258;71271;-51
2023/04/27 02:23:58;;;;;;;0.10;0.10;;;;;;;6.97;100.00;98830.34;104679;1260;61226;-50
2023/04/27 02:26:28;;;;;;;0.20;0.10;;;;;;;6.98;100.00;98835.31;105174;1260;60428;-51
2023/04/27 02:28:56;;;;;;;0.80;0.10;;;;;;;6.97;100.00;98842.67;105875;1255;74247;-47
2023/04/27 02:31:23;;;;;;;2.30;0.20;;;;;;;6.97;100.00;98843.60;105855;1255;67719;-50
2023/04/27 02:33:50;;;;;;;0.20;0.10;;;;;;;6.97;100.00;98846.04;105226;1261;74689;-49
2023/04/27 02:36:17;;;;;;;0.10;0.10;;;;;;;6.96;100.00;98841.48;104949;1263;63381;-48
2023/04/27 02:38:44;;;;;;;0.10;0.10;;;;;;;6.94;100.00;98852.81;104772;1254;59585;-52
2023/04/27 02:41:10;;;;;;;0.20;0.10;;;;;;;6.89;100.00;98856.61;104481;1260;74669;-48
2023/04/27 02:43:37;;;;;;;0.80;0.10;;;;;;;6.87;100.00;98857.94;104779;1259;66314;-49
2023/04/27 02:46:04;;;;;;;0.30;0.10;;;;;;;6.85;100.00;98859.85;105272;1257;74967;-46
2023/04/27 02:48:31;;;;;;;0.20;0.10;;;;;;;6.80;100.00;98859.88;105266;1260;63466;-49
2023/04/27 02:50:58;;;;;;;1.00;0.10;;;;;;;6.77;100.00;98862.86;105272;1259;62235;-50
2023/04/27 02:53:25;;;;;;;0.20;0.10;;;;;;;6.76;100.00;98865.05;105368;1254;75758;-49
2023/04/27 02:55:52;;;;;;;0.10;0.10;;;;;;;6.77;100.00;98866.95;104664;1259;67639;-51
2023/04/27 02:58:18;;;;;;;0.10;0.10;;;;;;;6.78;100.00;98865.33;104826;1257;73563;-46
2023/04/27 03:00:45;;;;;;;0.10;0.10;;;;;;;6.78;100.00;98867.83;104935;1254;64105;-47
2023/04/27 03:03:14;;;;;;;0.00;0.00;;;;;;;6.77;100.00;98867.89;105427;1261;60429;-49
2023/04/27 03:05:41;;;;;;;0.00;0.00;;;;;;;6.75;100.00;98868.16;106715;1255;76651;-50
2023/04/27 03:08:08;;;;;;;0.20;0.20;;;;;;;6.74;100.00;98875.48;105177;1258;69325;-50
2023/04/27 03:10:35;;;;;;;0.10;0.00;;;;;;;6.73;100.00;98876.23;105356;1255;74861;-50
2023/04/27 03:13:02;;;;;;;0.20;0.10;;;;;;;6.73;100.00;98876.78;105182;1256;62745;-52
2023/04/27 03:15:30;;;;;;;0.20;0.10;;;;;;;6.73;100.00;98882.51;104818;1260;60249;-51
2023/04/27 03:17:56;;;;;;;0.40;0.10;;;;;;;6.74;100.00;98884.78;105242;1255;76548;-48
2023/04/27 03:20:23;;;;;;;0.10;0.10;;;;;;;6.75;100.00;98888.63;104886;1254;67353;-48
2023/04/27 03:22:52;;;;;;;0.10;0.00;;;;;;;6.77;100.00;98892.67;105238;1257;75058;-51
2023/04/27 03:25:19;;;;;;;0.10;0.00;;;;;;;6.77;100.00;98897.81;105202;1262;62251;-48
2023/04/27 03:27:46;;;;;;;0.30;0.10;;;;;;;6.77;100.00;98896.92;105251;1260;60386;-48
2023/04/27 03:30:13;;;;;;;0.80;0.10;;;;;;;6.76;100.00;98898.23;105245;1254;72617;-50
2023/04/27 03:32:40;;;;;;;0.30;0.10;;;;;;;6.75;100.00;98904.50;105122;1254;69564;-49
2023/04/27 03:35:08;;;;;;;1.40;0.10;;;;;;;6.72;100.00;98903.23;105287;1259;74385;-50
2023/04/27 03:37:35;;;;;;;0.10;0.00;;;;;;;6.73;100.00;98907.12;107447;1257;61190;-50
2023/04/27 03:40:06;;;;;;;0.30;0.10;;;;;;;6.74;100.00;98904.21;105280;1260;60441;-49
2023/04/27 03:42:33;;;;;;;0.20;0.00;;;;;;;6.75;100.00;98906.65;105538;1259;76303;-51
2023/04/27 03:45:00;;;;;;;0.10;0.10;;;;;;;6.75;100.00;98908.80;105404;1259;67317;-48
2023/04/27 03:47:27;;;;;;;0.20;0.10;;;;;;;6.73;100.00;98914.77;105429;1260;70534;-52
2023/04/27 03:49:53;;;;;;;0.10;0.00;;;;;;;6.69;100.00;98916.39;105038;1254;63972;-50
2023/04/27 03:52:21;;;;;;;3.60;0.10;;;;;;;6.67;100.00;98917.38;105317;1255;60518;-50
2023/04/27 03:54:49;;;;;;;0.10;0.00;;;;;;;6.63;100.00;98916.11;105530;1255;76680;-50
2023/04/27 03:57:16;;;;;;;0.60;0.10;;;;;;;6.61;100.00;98919.77;105251;1260;67726;-51
2023/04/27 03:59:43;;;;;;;1.40;0.10;;;;;;;6.59;100.00;98919.88;105343;1260;75016;-49
2023/04/27 04:02:10;;;;;;;1.10;0.00;;;;;;;6.56;100.00;98913.75;105587;1257;62222;-52
2023/04/27 04:04:37;;;;;;;0.20;0.10;;;;;;;6.53;100.00;98916.95;105085;1261;62544;-45
2023/04/27 04:07:05;;;;;;;0.00;0.00;;;;;;;6.49;100.00;98919.08;105686;1260;73770;-49
2023/04/27 04:09:31;;;;;;;0.10;0.00;;;;;;;6.44;100.00;98920.56;105199;1261;69166;-47
2023/04/27 04:11:59;;;;;;;0.10;0.00;;;;;;;6.42;100.00;98918.86;105166;1261;72493;-47
2023/04/27 04:14:26;;;;;;;0.10;0.00;;;;;;;6.42;100.00;98915.48;105218;1260;62787;-51
2023/04/27 04:16:53;;;;;;;0.20;0.00;;;;;;;6.42;100.00;98914.92;105175;1262;60363;-53
2023/04/27 04:19:20;;;;;;;0.30;0.10;;;;;;;6.41;100.00;98915.52;105166;1260;73018;-51
2023/04/27 04:21:47;;;;;;;1.50;0.10;;;;;;;6.40;100.00;98915.02;105173;1264;68637;-51
2023/04/27 04:24:15;;;;;;;0.10;0.10;;;;;;;6.39;100.00;98915.78;105945;1260;74061;-50
2023/04/27 04:26:42;;;;;;;0.30;0.10;;;;;;;6.36;100.00;98922.52;105333;1257;64238;-50
2023/04/27 04:29:09;;;;;;;0.10;0.00;;;;;;;6.36;100.00;98925.20;104863;1264;62989;-49
2023/04/27 04:31:37;;;;;;;0.30;0.10;;;;;;;6.37;100.00;98924.11;104425;1257;74047;-50
2023/04/27 04:34:04;;;;;;;0.60;0.10;;;;;;;6.39;100.00;98925.04;104918;1258;67194;-47
2023/04/27 04:36:30;;;;;;;0.70;0.10;;;;;;;6.42;100.00;98925.27;104509;1257;76789;-47
2023/04/27 04:38:58;;;;;;;0.10;0.10;;;;;;;6.43;100.00;98926.67;104795;1261;62442;-45
2023/04/27 04:41:25;;;;;;;1.10;0.10;;;;;;;6.43;100.00;98932.90;105120;1262;60339;-49
2023/04/27 04:43:51;;;;;;;0.20;0.10;;;;;;;6.44;100.00;98930.52;107605;1258;73802;-48
2023/04/27 04:46:18;;;;;;;0.10;0.00;;;;;;;6.47;100.00;98927.92;105112;1258;67327;-47
2023/04/27 04:48:45;;;;;;;0.10;0.00;;;;;;;6.50;100.00;98924.92;104755;1263;74053;-51
2023/04/27 04:51:12;;;;;;;0.20;0.10;;;;;;;6.53;100.00;98920.88;104516;1256;62572;-49
2023/04/27 04:53:39;;;;;;;0.10;0.10;;;;;;;6.57;100.00;98916.07;104526;1258;61020;-48
2023/04/27 04:56:12;;;;;;;0.10;0.10;;;;;;;6.57;100.00;98907.33;104582;1258;75337;-48
2023/04/27 04:58:39;;;;;;;0.10;0.10;;;;;;;6.54;100.00;98906.38;104515;1258;68703;-49
2023/04/27 05:01:06;;;;;;;0.10;0.00;;;;;;;6.56;100.00;98913.98;104860;1257;71363;-50
2023/04/27 05:03:33;;;;;;;1.50;0.10;;;;;;;6.56;100.00;98921.96;108834;1257;61597;-48
2023/04/27 05:06:00;;;;;;;0.20;0.10;;;;;;;6.56;100.00;98932.30;108868;1256;60825;-48
2023/04/27 05:08:27;;;;;;;0.20;0.10;;;;;;;6.54;100.00;98939.04;108715;1256;76176;-51
2023/04/27 05:10:54;;;;;;;1.60;0.10;;;;;;;6.54;100.00;98937.08;108866;1256;68230;-49
2023/04/27 05:13:20;;;;;;;0.10;0.10;;;;;;;6.56;100.00;98930.53;108774;1256;73878;-51
2023/04/27 05:15:47;;;;;;;0.10;0.10;;;;;;;6.57;100.00;98930.46;108778;1257;62948;-49
2023/04/27 05:18:14;;;;;;;0.30;0.10;;;;;;;6.59;100.00;98928.09;108831;1257;62710;-51
2023/04/27 05:20:41;;;;;;;0.30;0.10;;;;;;;6.59;100.00;98927.04;108732;1256;74792;-47
2023/04/27 05:23:07;;;;;;;0.10;0.10;;;;;;;6.57;100.00;98927.98;108878;1256;68914;-49
2023/04/27 05:25:40;;;;;;;0.20;0.10;;;;;;;6.57;100.00;98929.41;108704;1257;74212;-47
2023/04/27 05:28:07;;;;;;;0.10;0.10;;;;;;;6.59;100.00;98930.56;108684;1257;63414;-48
2023/04/27 05:30:34;;;;;;;0.10;0.10;;;;;;;6.62;100.00;98932.08;108724;1255;61442;-50
2023/04/27 05:33:02;;;;;;;0.10;0.10;;;;;;;6.65;100.00;98937.44;108486;1255;73797;-49
2023/04/27 05:35:30;;;;;;;0.40;0.10;;;;;;;6.67;100.00;98936.81;106753;1256;69645;-49
2023/04/27 05:37:57;;;;;;;0.10;0.10;;;;;;;6.67;100.00;98936.81;104947;1257;72752;-50
2023/04/27 05:40:24;;;;;;;2.60;0.10;;;;;;;6.67;100.00;98938.04;104889;1260;62438;-50
2023/04/27 05:42:50;;;;;;;0.00;0.00;;;;;;;6.68;100.00;98935.67;104899;1260;60411;-51
2023/04/27 05:45:17;;;;;;;0.10;0.10;;;;;;;6.67;100.00;98940.38;104698;1258;72302;-50
2023/04/27 05:47:44;;;;;;;0.20;0.10;;;;;;;6.63;100.00;98942.14;104791;1260;67723;-51
2023/04/27 05:50:11;;;;;;;0.20;0.10;;;;;;;6.60;100.00;98942.48;105245;1261;74857;-48
2023/04/27 05:52:38;;;;;;;0.10;0.10;;;;;;;6.61;100.00;98942.96;105290;1259;61746;-48
2023/04/27 05:55:06;;;;;;;0.10;0.00;;;;;;;6.61;100.00;98943.52;105218;1259;60463;-49
2023/04/27 05:57:33;;;;;;;0.10;0.00;;;;;;;6.63;100.00;98947.16;105666;1257;73292;-49
2023/04/27 06:00:00;;;;;;;0.00;0.00;;;;;;;6.66;100.00;98952.89;105137;1259;70218;-50
2023/04/27 06:02:37;;;;;;;1.60;0.10;;;;;;;6.69;100.00;98957.57;105872;1257;73158;-50
2023/04/27 06:05:05;;;;;;;0.10;0.10;;;;;;;6.71;100.00;98960.50;105019;1261;64251;-52
2023/04/27 06:07:32;;;;;;;0.00;0.00;;;;;;;6.73;100.00;98954.52;106266;1260;60627;-49
2023/04/27 06:09:59;;;;;;;0.10;0.10;;;;;;;6.72;100.00;98955.98;104995;1261;74980;-47
2023/04/27 06:12:26;;;;;;;0.10;0.00;;;;;;;6.74;100.00;98960.92;104754;1260;69253;-49
2023/04/27 06:14:53;;;;;;;0.00;0.00;;;;;;;6.76;100.00;98960.63;104283;1257;75055;-49
2023/04/27 06:17:20;;;;;;;0.10;0.10;;;;;;;6.79;100.00;98964.26;104469;1257;64238;-51
2023/04/27 06:19:47;;;;;;;0.10;0.10;;;;;;;6.81;100.00;98966.83;104565;1260;62774;-51
2023/04/27 06:22:14;;;;;;;0.10;0.10;;;;;;;6.83;100.00;98970.30;104695;1258;72518;-49
2023/04/27 06:24:41;;;;;;;0.10;0.00;;;;;;;6.83;100.00;98968.51;104664;1260;69223;-48
2023/04/27 06:27:08;;;;;;;0.10;0.10;;;;;;;6.83;100.00;98967.98;104773;1260;72777;-51
2023/04/27 06:29:34;;;;;;;0.10;0.00;;;;;;;6.84;100.00;98967.40;104567;1257;62458;-49
2023/04/27 06:32:05;;;;;;;0.50;0.10;;;;;;;6.84;100.00;98966.85;104597;1256;62241;-52
2023/04/27 06:34:35;;;;;;;0.30;0.10;;;;;;;6.80;100.00;98967.91;104742;1260;75990;-53
2023/04/27 06:37:02;;;;;;;0.10;0.10;;;;;;;6.78;100.00;98970.00;104912;1257;68530;-49
2023/04/27 06:39:29;;;;;;;0.70;0.10;;;;;;;6.77;100.00;98974.68;104700;1260;72710;-47
2023/04/27 06:41:57;;;;;;;0.10;0.10;;;;;;;6.77;100.00;98972.01;104732;1257;61123;-50
2023/04/27 06:44:24;;;;;;;0.10;0.10;;;;;;;6.77;100.00;98972.34;105119;1256;60314;-50
2023/04/27 06:46:50;;;;;;;0.10;0.10;;;;;;;6.81;100.00;98972.91;104818;1257;73200;-48
2023/04/27 06:49:17;;;;;;;0.10;0.10;;;;;;;6.84;100.00;98974.54;104672;1257;69675;-49
2023/04/27 06:51:45;;;;;;;0.10;0.10;;;;;;;6.86;100.00;98978.58;104883;1260;74473;-50
2023/04/27 06:54:12;;;;;;;1.10;0.10;;;;;;;6.85;100.00;98980.74;104902;1260;64454;-48
2023/04/27 06:56:39;;;;;;;1.00;0.20;;;;;;;6.85;100.00;98977.00;105451;1256;61866;-48
2023/04/27 06:59:06;;;;;;;0.20;0.10;;;;;;;6.83;100.00;98973.67;105346;1257;72426;-44
2023/04/27 07:01:33;;;;;;;0.20;0.10;;;;;;;6.83;100.00;98975.45;105542;1254;65015;-47
2023/04/27 07:04:00;;;;;;;0.30;0.20;;;;;;;6.82;100.00;98976.94;105419;1257;72440;-50
2023/04/27 07:06:27;;;;;;;1.20;0.10;;;;;;;6.80;100.00;98971.67;105927;1256;61821;-48
2023/04/27 07:08:54;;;;;;;0.20;0.20;;;;;;;6.81;100.00;98974.66;105495;1259;60405;-48
2023/04/27 07:11:22;;;;;;;0.10;0.10;;;;;;;6.84;100.00;98970.77;105468;1254;71924;-48
2023/04/27 07:13:48;;;;;;;0.10;0.10;;;;;;;6.86;100.00;98973.04;105457;1260;66036;-50
2023/04/27 07:16:15;;;;;;;0.20;0.10;;;;;;;6.87;100.00;98975.83;105124;1261;74490;-48
2023/04/27 07:18:42;;;;;;;0.20;0.20;;;;;;;6.89;100.00;98978.83;105965;1254;61808;-50
2023/04/27 07:21:09;;;;;;;0.20;0.10;;;;;;;6.87;100.00;98983.88;105081;1259;60901;-49
2023/04/27 07:23:38;;;;;;;0.30;0.10;;;;;;;6.87;100.00;98987.81;105099;1254;72222;-49
2023/04/27 07:26:06;;;;;;;0.30;0.10;;;;;;;6.88;100.00;98994.35;105030;1258;66800;-48
2023/04/27 07:28:37;;;;;;;0.90;0.10;;;;;;;6.90;100.00;98996.36;104566;1254;73476;-49
2023/04/27 07:31:04;;;;;;;0.20;0.10;;;;;;;6.93;100.00;98999.83;105248;1256;61882;-48
2023/04/27 07:33:34;;;;;;;0.30;0.20;;;;;;;6.95;100.00;98998.84;105712;1259;60338;-53
2023/04/27 07:36:01;;;;;;;0.10;0.10;;;;;;;6.97;100.00;98999.27;104554;1254;72633;-51
2023/04/27 07:38:30;;;;;;;0.20;0.10;;;;;;;6.97;100.00;99000.02;104764;1259;69079;-46
2023/04/27 07:40:57;;;;;;;0.20;0.10;;;;;;;6.96;100.00;99000.39;104930;1254;72901;-48
2023/04/27 07:43:24;;;;;;;0.30;0.20;;;;;;;6.95;100.00;99002.57;106043;1259;64022;-48
2023/04/27 07:45:51;;;;;;;1.60;0.20;;;;;;;6.93;100.00;99004.27;104824;1259;60792;-49
2023/04/27 07:48:18;;;;;;;0.60;0.10;;;;;;;6.91;100.00;99004.88;104732;1259;75755;-49
2023/04/27 07:50:45;;;;;;;0.20;0.10;;;;;;;6.91;100.00;99004.18;108845;1253;67522;-53
2023/04/27 07:53:12;;;;;;;0.20;0.10;;;;;;;6.92;100.00;99003.77;105983;1255;71429;-53
2023/04/27 07:55:40;;;;;;;0.30;0.10;;;;;;;6.97;100.00;99006.04;104847;1259;63901;-48
2023/04/27 07:58:07;;;;;;;0.10;0.10;;;;;;;7.04;100.00;99009.33;108956;1254;62871;-48
2023/04/27 08:00:33;;;;;;;0.10;0.10;;;;;;;7.09;100.00;99013.90;108731;1256;74275;-51
2023/04/27 08:03:01;;;;;;;0.10;0.10;;;;;;;7.13;100.00;99017.80;108851;1256;67124;-51
2023/04/27 08:05:28;;;;;;;0.10;0.10;;;;;;;7.16;100.00;99016.58;108838;1257;74837;-51
2023/04/27 08:07:55;;;;;;;0.20;0.10;;;;;;;7.19;100.00;99018.22;108805;1255;61334;-51
2023/04/27 08:10:23;;;;;;;0.10;0.10;;;;;;;7.22;100.00;99018.64;108882;1255;62571;-50
2023/04/27 08:12:50;;;;;;;0.10;0.10;;;;;;;7.26;100.00;99021.85;108875;1256;75869;-48
2023/04/27 08:15:17;;;;;;;0.10;0.00;;;;;;;7.31;100.00;99025.89;108702;1255;158426;-49
2023/04/27 08:18:25;;;;;;;0.10;0.10;;;;;;;7.35;100.00;99024.27;101944;1292;600396;-51
2023/04/27 08:20:52;;;;;;;0.20;0.10;;;;;;;7.33;100.00;99027.73;104067;1270;63012;-52
2023/04/27 08:23:19;;;;;;;0.30;0.10;;;;;;;7.34;100.00;99027.17;104034;1270;59376;-49
2023/04/27 08:25:47;;;;;;;0.70;0.10;;;;;;;7.33;100.00;99027.39;107387;1265;74253;-46
2023/04/27 08:28:14;;;;;;;0.10;0.10;;;;;;;7.32;100.00;99029.93;107921;1264;70993;-49
2023/04/27 08:30:41;;;;;;;0.40;0.10;;;;;;;7.30;100.00;99031.66;108186;1265;72336;-48
2023/04/27 08:33:08;;;;;;;0.30;0.10;;;;;;;7.30;100.00;99026.84;108219;1263;191610;-48
2023/04/27 08:35:35;;;;;;;0.30;0.20;;;;;;;7.31;100.00;99026.81;106312;1266;60971;-53
2023/04/27 08:38:02;;;;;;;0.20;0.10;;;;;;;7.33;100.00;99030.23;104186;1263;72666;-49
2023/04/27 08:40:29;;;;;;;0.40;0.20;;;;;;;7.37;100.00;99029.00;104358;1263;68309;-52
2023/04/27 08:42:57;;;;;;;0.40;0.10;;;;;;;7.40;100.00;99031.33;104336;1263;73250;-49
2023/04/27 08:45:24;;;;;;;0.10;0.10;;;;;;;7.44;100.00;99029.92;104276;1263;61181;-50
2023/04/27 08:47:51;;;;;;;0.50;0.20;;;;;;;7.47;100.00;99034.60;106507;1263;59256;-49
2023/04/27 08:50:18;;;;;;;0.20;0.20;;;;;;;7.48;100.00;99027.20;104224;1263;75411;-47
2023/04/27 08:52:45;;;;;;;0.40;0.30;;;;;;;7.48;100.00;99031.17;104217;1268;68339;-48
2023/04/27 08:55:12;;;;;;;0.10;0.10;;;;;;;7.43;100.00;99031.21;104611;1263;73272;-49
2023/04/27 08:57:53;;;;;;;0.40;0.20;;;;;;;7.37;100.00;99035.61;104761;1263;61319;-49
2023/04/27 09:00:25;;;;;;;0.10;0.10;;;;;;;7.33;100.00;99034.17;106083;1263;60803;-50
2023/04/27 09:02:52;;;;;;;0.20;0.20;;;;;;;7.31;100.00;99034.98;106666;1262;74538;-51
2023/04/27 09:05:21;;;;;;;0.20;0.10;;;;;;;7.31;100.00;99034.98;105680;1255;68104;-50
2023/04/27 09:07:58;;;;;;;0.40;0.20;;;;;;;7.31;100.00;99032.86;109182;1250;74511;-52
2023/04/27 09:10:25;;;;;;;0.20;0.20;;;;;;;7.32;100.00;99035.64;106003;1254;61149;-47
2023/04/27 09:12:56;;;;;;;1.00;0.20;;;;;;;7.36;100.00;99032.45;105420;1251;59699;-48
2023/04/27 09:15:23;;;;;;;0.30;0.20;;;;;;;7.36;100.00;99033.31;106121;1257;72917;-52
2023/04/27 09:17:54;;;;;;;0.60;0.20;;;;;;;7.38;100.00;99031.83;105456;1251;67441;-50
2023/04/27 09:20:21;;;;;;;0.20;0.20;;;;;;;7.40;100.00;99032.80;105980;1253;74049;-50
2023/04/27 09:22:51;;;;;;;0.30;0.20;;;;;;;7.39;100.00;99030.54;105370;1258;63539;-49
2023/04/27 09:25:31;;;;;;;0.30;0.20;;;;;;;7.41;100.00;99029.89;105577;1256;60018;-48
2023/04/27 09:27:59;;;;;;;0.30;0.20;;;;;;;7.43;100.00;99034.25;105495;1251;73490;-48
2023/04/27 09:30:26;;;;;;;0.20;0.20;;;;;;;7.41;100.00;99035.23;105495;1251;69347;-51
2023/04/27 09:32:55;;;;;;;1.20;0.20;;;;;;;7.38;100.00;99037.69;105463;1253;73326;-47
2023/04/27 09:35:26;;;;;;;0.20;0.20;;;;;;;7.38;100.00;99032.89;107465;1256;62038;-50
2023/04/27 09:37:53;;;;;;;1.20;0.30;;;;;;;7.37;100.00;99028.99;105456;1254;62146;-48
2023/04/27 09:40:32;;;;;;;0.30;0.30;;;;;;;7.38;100.00;99027.53;105473;1257;73224;-49
2023/04/27 09:43:02;;;;;;;0.30;0.30;;;;;;;7.38;100.00;99028.62;105413;1253;66274;-50
2023/04/27 09:45:29;;;;;;;0.70;0.30;;;;;;;7.39;100.00;99028.77;105440;1253;73138;-50
2023/04/27 09:47:57;;;;;;;0.40;0.30;;;;;;;7.40;100.00;99030.67;108867;1251;64376;-50
2023/04/27 09:50:23;;;;;;;0.90;0.30;;;;;;;7.42;100.00;99031.42;107700;1254;59609;-48
2023/04/27 09:52:50;;;;;;;1.50;0.40;;;;;;;7.41;100.00;99032.91;105452;1251;72015;-51
2023/04/27 09:55:23;;;;;;;0.30;0.30;;;;;;;7.38;100.00;99031.29;105575;1257;66985;-51
2023/04/27 09:57:54;;;;;;;0.20;0.20;;;;;;;7.38;100.00;99033.23;105553;1258;73409;-51
2023/04/27 10:00:36;;;;;;;0.30;0.20;;;;;;;7.41;100.00;99035.61;105582;1253;62123;-48
2023/04/27 10:03:17;;;;;;;0.20;0.20;;;;;;;7.44;100.00;99035.27;105452;1253;60405;-47
2023/04/27 10:05:50;;;;;;;0.50;0.30;;;;;;;7.45;100.00;99036.83;105840;1257;75341;-47
2023/04/27 10:08:17;;;;;;;0.30;0.30;;;;;;;7.43;100.00;99043.15;105544;1253;66899;-48
2023/04/27 10:10:47;;;;;;;1.10;0.30;;;;;;;7.41;100.00;99040.92;105384;1256;71784;-46
2023/04/27 10:13:21;;;;;;;0.40;0.30;;;;;;;7.37;100.00;99039.52;105401;1253;64060;-49
2023/04/27 10:15:48;;;;;;;1.40;0.40;;;;;;;7.35;100.00;99036.40;105427;1258;59634;-50
2023/04/27 10:18:26;;;;;;;0.40;0.40;;;;;;;7.35;100.00;99037.30;105364;1259;73050;-50
2023/04/27 10:20:53;;;;;;;0.50;0.30;;;;;;;7.38;100.00;99039.32;105986;1253;67268;-52
2023/04/27 10:23:26;;;;;;;2.50;0.40;;;;;;;7.38;100.00;99042.73;105602;1256;72093;-49
2023/04/27 10:25:53;;;;;;;1.70;0.40;;;;;;;7.38;100.00;99043.09;106047;1258;61938;-46
2023/04/27 10:28:20;;;;;;;0.40;0.30;;;;;;;7.38;100.00;99046.29;105467;1256;62050;-48
2023/04/27 10:30:47;;;;;;;2.00;1.80;;;;;;;7.37;100.00;99051.32;107355;1256;73806;-50
2023/04/27 10:33:16;;;;;;;2.00;1.60;;;;;;;7.37;100.00;99050.62;106801;1256;68121;-50
2023/04/27 10:35:54;;;;;;;0.60;0.50;;;;;;;7.37;100.00;99051.84;105477;1251;72812;-49
2023/04/27 10:38:26;;;;;;;0.50;0.30;;;;;;;7.38;100.00;99054.83;106438;1251;60165;-52
2023/04/27 10:40:55;;;;;;;0.80;0.30;;;;;;;7.38;100.00;99053.05;105450;1253;62608;-47
2023/04/27 10:43:28;;;;;;;4.00;0.30;;;;;;;7.37;100.00;99056.83;105372;1257;75333;-49
2023/04/27 10:46:12;;;;;;;0.90;0.30;;;;;;;7.39;100.00;99058.39;105377;1258;66543;-52
2023/04/27 10:48:40;;;;;;;3.00;0.50;;;;;;;7.43;100.00;99059.23;105580;1257;72867;-46
2023/04/27 10:51:07;;;;;;;1.30;0.70;;;;;;;7.47;100.00;99061.92;105441;1257;61777;-48
2023/04/27 10:53:34;;;;;;;1.60;1.50;;;;;;;7.47;100.00;99064.95;105474;1252;60527;-47
2023/04/27 10:56:02;;;;;;;0.50;0.30;;;;;;;7.48;100.00;99065.45;105277;1253;74634;-50
2023/04/27 10:58:29;;;;;;;0.50;0.30;;;;;;;7.48;100.00;99067.39;105411;1253;67512;-53
2023/04/27 11:01:28;;;;;;;2.20;0.30;;;;;;;7.43;100.00;99067.96;105331;1257;73664;-51
2023/04/27 11:03:58;;;;;;;0.30;0.20;;;;;;;7.41;100.00;99068.44;105368;1259;64822;-46
2023/04/27 11:06:27;;;;;;;0.40;0.20;;;;;;;7.39;100.00;99071.76;109026;1253;62076;-49
2023/04/27 11:08:53;;;;;;;0.30;0.30;;;;;;;7.37;100.00;99074.70;109051;1253;75234;-47
2023/04/27 11:11:21;;;;;;;0.40;0.30;;;;;;;7.34;100.00;99079.09;109048;1251;71453;-47
2023/04/27 11:13:48;;;;;;;3.30;0.30;;;;;;;7.32;100.00;99072.95;109139;1251;76410;-47
2023/04/27 11:16:15;;;;;;;0.40;0.20;;;;;;;7.32;100.00;99078.51;109039;1253;60981;-46
2023/04/27 11:18:42;;;;;;;1.40;0.50;;;;;;;7.34;100.00;99077.67;109119;1253;62242;-50
2023/04/27 11:21:10;;;;;;;0.40;0.20;;;;;;;7.40;100.00;99081.51;105631;1258;72215;-49
2023/04/27 11:23:37;;;;;;;0.90;0.20;;;;;;;7.47;100.00;99080.15;106068;1257;66069;-48
2023/04/27 11:26:14;;;;;;;0.30;0.20;;;;;;;7.51;100.00;99078.86;105412;1258;73617;-49
2023/04/27 11:29:08;;;;;;;0.80;0.30;;;;;;;7.52;100.00;99081.27;109123;1251;61832;-50